Terminal Aerodrome Forecast
Issued by NWS

Home | Current Version | Previous Version | Text Only | Print | Product List | Glossary On
Versions: 1 2 3 4 5 6 7 8 9 10 11 12 13 14 15
468
FTUS45 KVEF 222320
TAFHND
TAF
KHND 222320Z 2300/2324 VRB06KT P6SM FEW120
     FM230500 20008KT P6SM SKC
     FM231500 VRB05KT P6SM FEW120
     FM232200 18007KT P6SM FEW120=

USA.gov is the U.S. government's official web portal to all federal, state and local government web resources and services.